createdAt,value
2023-02-11T00:00:22.224Z,79.60
2023-02-11T00:02:49.473Z,79.10
2023-02-11T00:05:16.876Z,79.20
2023-02-11T00:07:44.064Z,79.60
2023-02-11T00:10:11.498Z,79.30
2023-02-11T00:12:39.061Z,79.70
2023-02-11T00:15:08.044Z,80.20
2023-02-11T00:17:35.343Z,81.20
2023-02-11T00:20:02.577Z,81.20
2023-02-11T00:22:29.941Z,80.80
2023-02-11T00:24:57.316Z,80.70
2023-02-11T00:27:24.699Z,80.80
2023-02-11T00:29:52.079Z,81.20
2023-02-11T00:32:19.439Z,81.50
2023-02-11T00:34:46.731Z,81.10
2023-02-11T00:37:14.131Z,78.30
2023-02-11T00:39:42.482Z,78.90
2023-02-11T00:42:13.297Z,79.10
2023-02-11T00:44:40.593Z,79.50
2023-02-11T00:47:08.013Z,79.80
2023-02-11T00:49:37.136Z,80.10
2023-02-11T00:52:04.603Z,78.00
2023-02-11T00:54:31.937Z,77.20
2023-02-11T00:56:59.351Z,77.60
2023-02-11T00:59:27.163Z,77.60
2023-02-11T01:01:54.425Z,75.20
2023-02-11T01:04:21.941Z,75.80
2023-02-11T01:06:52.374Z,76.20
2023-02-11T01:09:21.325Z,76.80
2023-02-11T01:11:48.795Z,76.00
2023-02-11T01:14:16.672Z,76.10
2023-02-11T01:16:44.277Z,75.50
2023-02-11T01:19:11.594Z,75.70
2023-02-11T01:21:39.701Z,75.10
2023-02-11T01:24:07.198Z,74.90
2023-02-11T01:26:36.141Z,74.90
2023-02-11T01:29:03.513Z,74.20
2023-02-11T01:31:31.999Z,73.70
2023-02-11T01:34:01.602Z,74.20
2023-02-11T01:36:29.734Z,74.90
2023-02-11T01:38:56.934Z,74.30
2023-02-11T01:41:24.244Z,73.60
2023-02-11T01:43:51.610Z,73.00
2023-02-11T01:46:37.123Z,73.30
2023-02-11T01:49:10.929Z,72.60
2023-02-11T01:51:48.756Z,73.00
2023-02-11T01:54:39.604Z,73.50
2023-02-11T01:57:22.896Z,73.50
2023-02-11T01:59:56.166Z,72.50
2023-02-11T02:02:49.398Z,71.10
2023-02-11T02:05:39.304Z,71.90
2023-02-11T02:08:19.419Z,72.50
2023-02-11T02:10:53.448Z,71.80
2023-02-11T02:13:21.320Z,71.50
2023-02-11T02:16:04.213Z,71.80
2023-02-11T02:18:35.789Z,72.80
2023-02-11T02:21:44.856Z,73.10
2023-02-11T02:24:47.038Z,72.00
2023-02-11T02:27:44.288Z,72.90
2023-02-11T02:30:17.394Z,72.20
2023-02-11T02:32:47.690Z,71.40
2023-02-11T02:35:30.265Z,71.80
2023-02-11T02:38:01.763Z,71.70
2023-02-11T02:40:43.866Z,71.20
2023-02-11T02:43:11.864Z,71.00
2023-02-11T02:45:39.076Z,71.10
2023-02-11T02:48:07.527Z,69.90
2023-02-11T02:50:37.542Z,69.90
2023-02-11T02:53:37.093Z,70.20
2023-02-11T02:56:30.998Z,70.10
2023-02-11T02:59:21.789Z,70.40
2023-02-11T03:02:06.934Z,71.00
2023-02-11T03:04:52.543Z,71.30
2023-02-11T03:07:51.449Z,69.90
2023-02-11T03:10:41.467Z,68.50
2023-02-11T03:13:08.954Z,67.20
2023-02-11T03:15:43.235Z,66.40
2023-02-11T03:18:14.750Z,67.10
2023-02-11T03:20:45.403Z,67.70
2023-02-11T03:23:24.151Z,67.80
2023-02-11T03:25:58.038Z,67.60
2023-02-11T03:28:52.089Z,67.80
2023-02-11T03:31:34.608Z,68.60
2023-02-11T03:34:04.953Z,69.50
2023-02-11T03:36:54.827Z,69.40
2023-02-11T03:39:28.025Z,70.00
2023-02-11T03:41:58.793Z,70.20
2023-02-11T03:44:31.053Z,70.60
2023-02-11T03:46:59.652Z,70.90
2023-02-11T03:49:28.956Z,71.20
2023-02-11T03:51:57.843Z,72.00
2023-02-11T03:54:30.464Z,72.00
2023-02-11T03:57:01.070Z,72.40
2023-02-11T03:59:29.033Z,72.80
2023-02-11T04:01:57.836Z,73.70
2023-02-11T04:04:25.220Z,74.00
2023-02-11T04:06:52.563Z,73.10
2023-02-11T04:09:19.854Z,72.70
2023-02-11T04:11:47.272Z,72.60
2023-02-11T04:14:14.504Z,73.10
2023-02-11T04:16:41.900Z,74.20
2023-02-11T04:19:09.290Z,73.80
2023-02-11T04:21:36.657Z,73.90
2023-02-11T04:24:04.069Z,73.80
2023-02-11T04:26:31.408Z,74.00
2023-02-11T04:28:58.727Z,75.40
2023-02-11T04:31:26.166Z,76.50
2023-02-11T04:33:53.555Z,76.60
2023-02-11T04:36:21.222Z,77.20
2023-02-11T04:38:48.542Z,77.70
2023-02-11T04:41:15.837Z,79.10
2023-02-11T04:43:43.222Z,79.30
2023-02-11T04:46:10.487Z,80.10
2023-02-11T04:48:37.998Z,80.20
2023-02-11T04:51:05.502Z,80.30
2023-02-11T04:53:32.874Z,80.40
2023-02-11T04:56:00.125Z,79.60
2023-02-11T04:58:27.490Z,79.80
2023-02-11T05:00:54.834Z,79.90
2023-02-11T05:03:22.231Z,79.50
2023-02-11T05:05:49.816Z,79.20
2023-02-11T05:08:17.273Z,79.50
2023-02-11T05:10:48.294Z,79.40
2023-02-11T05:13:15.669Z,79.90
2023-02-11T05:15:42.940Z,80.20
2023-02-11T05:18:10.359Z,79.90
2023-02-11T05:20:41.744Z,80.00
2023-02-11T05:23:09.148Z,79.60
2023-02-11T05:25:36.666Z,79.60
2023-02-11T05:28:05.087Z,80.30
2023-02-11T05:30:32.787Z,79.90
2023-02-11T05:33:00.263Z,80.30
2023-02-11T05:35:27.534Z,80.70
2023-02-11T05:37:54.894Z,81.00
2023-02-11T05:40:22.207Z,80.60
2023-02-11T05:42:49.595Z,81.00
2023-02-11T05:45:16.857Z,79.90
2023-02-11T05:47:44.244Z,80.30
2023-02-11T05:50:11.574Z,80.70
2023-02-11T05:52:38.953Z,80.90
2023-02-11T05:55:06.620Z,81.20
2023-02-11T05:57:34.752Z,81.50
2023-02-11T06:00:02.463Z,81.90
2023-02-11T06:02:39.911Z,82.60
2023-02-11T06:05:07.795Z,83.10
2023-02-11T06:07:35.117Z,83.30
2023-02-11T06:10:02.464Z,83.30
2023-02-11T06:12:29.783Z,83.80
2023-02-11T06:14:57.041Z,84.30
2023-02-11T06:17:25.534Z,84.80
2023-02-11T06:19:52.904Z,85.40
2023-02-11T06:22:20.399Z,84.40
2023-02-11T06:25:00.830Z,84.90
2023-02-11T06:27:29.002Z,85.90
2023-02-11T06:29:56.426Z,85.70
2023-02-11T06:32:42.733Z,85.70
2023-02-11T06:35:12.226Z,85.60
2023-02-11T06:37:40.712Z,85.60
2023-02-11T06:40:08.323Z,85.20
2023-02-11T06:42:36.376Z,85.00
2023-02-11T06:45:06.284Z,84.90
2023-02-11T06:47:33.580Z,84.90
2023-02-11T06:50:01.061Z,85.50
2023-02-11T06:52:28.500Z,86.50
2023-02-11T06:54:55.835Z,86.80
2023-02-11T06:57:23.171Z,86.60
2023-02-11T06:59:50.523Z,86.20
2023-02-11T07:02:20.688Z,86.00
2023-02-11T07:04:48.425Z,84.60
2023-02-11T07:07:16.199Z,83.70
2023-02-11T07:09:43.707Z,83.70
2023-02-11T07:12:12.034Z,84.10
2023-02-11T07:14:39.584Z,84.20
2023-02-11T07:17:07.594Z,84.10
2023-02-11T07:19:34.853Z,83.60
2023-02-11T07:22:02.242Z,83.50
2023-02-11T07:24:29.609Z,84.70
2023-02-11T07:26:56.913Z,85.70
2023-02-11T07:29:24.267Z,85.80
2023-02-11T07:31:51.651Z,86.50
2023-02-11T07:34:18.880Z,86.80
2023-02-11T07:36:46.294Z,87.30
2023-02-11T07:39:13.802Z,87.20
2023-02-11T07:41:41.249Z,87.50
2023-02-11T07:44:08.603Z,87.80
2023-02-11T07:46:37.042Z,88.10
2023-02-11T07:49:04.509Z,88.10
2023-02-11T07:51:32.285Z,88.30
2023-02-11T07:54:00.652Z,88.70
2023-02-11T07:56:29.532Z,88.60
2023-02-11T07:59:01.969Z,88.70
2023-02-11T08:01:30.041Z,88.10
2023-02-11T08:03:58.582Z,87.20
2023-02-11T08:06:30.510Z,86.80
2023-02-11T08:08:58.611Z,87.50
2023-02-11T08:11:28.190Z,88.40
2023-02-11T08:13:56.980Z,88.20
2023-02-11T08:16:27.315Z,88.40
2023-02-11T08:18:57.902Z,88.50
2023-02-11T08:21:25.626Z,87.90
2023-02-11T08:23:53.185Z,87.80
2023-02-11T08:26:24.008Z,85.90
2023-02-11T08:28:53.446Z,84.90
2023-02-11T08:31:26.851Z,83.40
2023-02-11T08:33:58.169Z,81.70
2023-02-11T08:36:29.461Z,82.40
2023-02-11T08:39:16.026Z,82.10
2023-02-11T08:41:47.052Z,82.10
2023-02-11T08:44:14.344Z,79.40
2023-02-11T08:46:41.614Z,78.80
2023-02-11T08:49:08.864Z,79.30
2023-02-11T08:51:36.224Z,79.00
2023-02-11T08:54:03.686Z,76.90
2023-02-11T08:56:32.566Z,74.20
2023-02-11T08:58:59.985Z,74.30
2023-02-11T09:01:29.923Z,70.90
2023-02-11T09:03:58.328Z,73.00
2023-02-11T09:06:27.000Z,74.00
2023-02-11T09:08:56.616Z,72.60
2023-02-11T09:11:31.594Z,68.90
2023-02-11T09:14:00.295Z,66.70
2023-02-11T09:16:31.964Z,65.50
2023-02-11T09:19:00.868Z,66.10
2023-02-11T09:21:28.749Z,66.20
2023-02-11T09:23:56.680Z,66.40
2023-02-11T09:26:27.306Z,64.80
2023-02-11T09:28:54.940Z,65.30
2023-02-11T09:31:24.809Z,65.00
2023-02-11T09:33:55.430Z,65.50
2023-02-11T09:36:25.672Z,64.70
2023-02-11T09:38:54.015Z,64.00
2023-02-11T09:41:21.222Z,61.90
2023-02-11T09:43:49.750Z,62.20
2023-02-11T09:46:19.060Z,61.20
2023-02-11T09:48:49.396Z,61.20
2023-02-11T09:51:46.531Z,61.10
2023-02-11T09:54:49.872Z,60.20
2023-02-11T09:57:28.251Z,62.20
2023-02-11T09:59:57.381Z,60.60
2023-02-11T10:02:36.629Z,60.20
2023-02-11T10:05:17.730Z,60.80
2023-02-11T10:07:47.781Z,62.10
2023-02-11T10:10:30.410Z,62.80
2023-02-11T10:13:19.218Z,61.40
2023-02-11T10:16:05.966Z,61.50
2023-02-11T10:18:41.544Z,61.10
2023-02-11T10:21:23.951Z,60.90
2023-02-11T10:23:54.665Z,60.80
2023-02-11T10:26:22.448Z,60.40
2023-02-11T10:28:53.299Z,60.20
2023-02-11T10:31:42.240Z,59.30
2023-02-11T10:34:13.998Z,59.50
2023-02-11T10:36:44.040Z,59.40
2023-02-11T10:39:20.457Z,60.50
2023-02-11T10:42:01.300Z,60.60
2023-02-11T10:44:32.886Z,61.90
2023-02-11T10:47:04.687Z,61.80
2023-02-11T10:49:37.652Z,61.00
2023-02-11T10:52:28.054Z,61.70
2023-02-11T10:55:09.831Z,59.90
2023-02-11T10:57:44.699Z,58.70
2023-02-11T11:00:18.211Z,58.90
2023-02-11T11:02:46.908Z,59.30
2023-02-11T11:05:21.072Z,58.60
2023-02-11T11:08:06.923Z,60.30
2023-02-11T11:10:46.706Z,59.30
2023-02-11T11:13:28.059Z,58.90
2023-02-11T11:16:12.265Z,59.40
2023-02-11T11:18:50.564Z,57.80
2023-02-11T11:21:36.991Z,57.70
2023-02-11T11:24:04.942Z,53.40
2023-02-11T11:26:44.331Z,53.60
2023-02-11T11:29:27.942Z,54.20
2023-02-11T11:31:59.591Z,52.80
2023-02-11T11:34:31.494Z,54.80
2023-02-11T11:36:59.042Z,55.30
2023-02-11T11:39:35.401Z,55.80
2023-02-11T11:42:06.252Z,54.90
2023-02-11T11:44:39.997Z,53.80
2023-02-11T11:47:07.221Z,55.20
2023-02-11T11:49:44.196Z,55.90
2023-02-11T11:52:26.981Z,56.20
2023-02-11T11:55:00.748Z,57.10
2023-02-11T11:57:30.252Z,57.90
2023-02-11T11:59:58.684Z,56.70
2023-02-11T12:02:56.702Z,53.30
2023-02-11T12:05:28.093Z,53.90
2023-02-11T12:08:13.287Z,55.80
2023-02-11T12:11:10.893Z,56.50
2023-02-11T12:13:50.370Z,56.40
2023-02-11T12:16:49.866Z,53.40
2023-02-11T12:19:28.036Z,52.50
2023-02-11T12:22:20.917Z,51.20
2023-02-11T12:25:21.315Z,49.40
2023-02-11T12:28:07.553Z,49.30
2023-02-11T12:30:57.443Z,49.00
2023-02-11T12:33:36.668Z,50.60
2023-02-11T12:36:44.329Z,51.80
2023-02-11T12:39:49.173Z,53.00
2023-02-11T12:43:02.686Z,54.60
2023-02-11T12:45:45.059Z,56.10
2023-02-11T12:48:13.001Z,57.20
2023-02-11T12:51:07.365Z,58.70
2023-02-11T12:53:41.404Z,59.60
2023-02-11T12:56:24.418Z,59.70
2023-02-11T12:58:56.282Z,60.10
2023-02-11T13:01:40.763Z,60.50
2023-02-11T13:04:27.090Z,60.60
2023-02-11T13:07:10.044Z,60.50
2023-02-11T13:09:45.728Z,60.80
2023-02-11T13:12:33.166Z,60.90
2023-02-11T13:15:08.188Z,59.50
2023-02-11T13:17:47.243Z,60.10
2023-02-11T13:20:28.679Z,60.70
2023-02-11T13:23:10.347Z,60.60
2023-02-11T13:26:13.191Z,60.50
2023-02-11T13:28:54.081Z,61.00
2023-02-11T13:31:21.665Z,60.10
2023-02-11T13:33:50.087Z,60.70
2023-02-11T13:36:24.857Z,60.30
2023-02-11T13:39:19.641Z,60.10
2023-02-11T13:41:52.516Z,60.00
2023-02-11T13:44:25.434Z,60.50
2023-02-11T13:46:57.357Z,60.20
2023-02-11T13:49:54.619Z,59.50
2023-02-11T13:52:32.271Z,58.50
2023-02-11T13:55:14.705Z,59.70
2023-02-11T13:57:42.870Z,58.20
2023-02-11T14:00:44.038Z,58.30
2023-02-11T14:03:30.201Z,58.70
2023-02-11T14:06:28.053Z,58.30
2023-02-11T14:09:10.642Z,59.50
2023-02-11T14:11:43.437Z,57.80
2023-02-11T14:14:27.483Z,58.30
2023-02-11T14:17:07.038Z,59.00
2023-02-11T14:19:37.007Z,58.70
2023-02-11T14:22:06.348Z,56.90
2023-02-11T14:24:33.679Z,56.60
2023-02-11T14:27:09.572Z,57.90
2023-02-11T14:29:42.268Z,57.50
2023-02-11T14:32:27.896Z,58.30
2023-02-11T14:35:07.604Z,58.90
2023-02-11T14:37:50.815Z,59.20
2023-02-11T14:40:32.306Z,60.20
2023-02-11T14:43:18.896Z,60.30
2023-02-11T14:45:54.495Z,60.50
2023-02-11T14:48:28.805Z,60.00
2023-02-11T14:51:23.656Z,60.60
2023-02-11T14:53:56.179Z,59.80
2023-02-11T14:56:26.756Z,59.20
2023-02-11T14:58:55.566Z,58.50
2023-02-11T15:01:27.346Z,58.70
2023-02-11T15:03:59.208Z,58.80
2023-02-11T15:06:36.877Z,59.40
2023-02-11T15:09:32.515Z,59.90
2023-02-11T15:12:00.026Z,60.50
2023-02-11T15:14:30.665Z,60.40
2023-02-11T15:17:01.325Z,60.20
2023-02-11T15:19:39.986Z,59.80
2023-02-11T15:22:29.292Z,59.70
2023-02-11T15:25:10.216Z,59.40
2023-02-11T15:27:42.561Z,58.90
2023-02-11T15:30:22.213Z,59.20
2023-02-11T15:32:51.101Z,59.00
2023-02-11T15:35:19.359Z,59.20
2023-02-11T15:37:48.845Z,60.30
2023-02-11T15:40:20.648Z,60.80
2023-02-11T15:42:59.081Z,61.10
2023-02-11T15:45:33.905Z,61.40
2023-02-11T15:48:15.153Z,60.40
2023-02-11T15:50:48.846Z,60.70
2023-02-11T15:53:40.765Z,60.80
2023-02-11T15:56:17.642Z,61.10
2023-02-11T15:58:48.095Z,62.60
2023-02-11T16:01:15.985Z,63.50
2023-02-11T16:03:44.490Z,63.80
2023-02-11T16:06:26.720Z,63.50
2023-02-11T16:09:01.236Z,63.30
2023-02-11T16:11:35.170Z,63.30
2023-02-11T16:14:19.603Z,63.00
2023-02-11T16:16:50.426Z,63.50
2023-02-11T16:19:21.485Z,64.30
2023-02-11T16:21:50.249Z,64.80
2023-02-11T16:24:37.767Z,65.30
2023-02-11T16:27:30.619Z,65.20
2023-02-11T16:29:59.032Z,64.70
2023-02-11T16:32:28.440Z,64.70
2023-02-11T16:34:58.136Z,64.00
2023-02-11T16:37:26.170Z,64.60
2023-02-11T16:39:57.062Z,65.10
2023-02-11T16:42:24.913Z,64.90
2023-02-11T16:44:52.437Z,65.00
2023-02-11T16:47:29.297Z,65.40
2023-02-11T16:49:57.735Z,66.30
2023-02-11T16:52:25.672Z,66.90
2023-02-11T16:54:53.719Z,66.30
2023-02-11T16:57:23.849Z,66.80
2023-02-11T16:59:52.283Z,67.90
2023-02-11T17:02:27.595Z,68.60
2023-02-11T17:04:57.633Z,69.00
2023-02-11T17:07:25.113Z,69.60
2023-02-11T17:09:52.410Z,69.50
2023-02-11T17:12:20.768Z,70.10
2023-02-11T17:14:48.077Z,70.40
2023-02-11T17:17:15.949Z,70.80
2023-02-11T17:19:43.631Z,72.70
2023-02-11T17:22:12.173Z,73.20
2023-02-11T17:24:39.593Z,73.00
2023-02-11T17:27:06.922Z,73.30
2023-02-11T17:29:34.216Z,74.30
2023-02-11T17:32:01.586Z,74.20
2023-02-11T17:34:29.428Z,74.40
2023-02-11T17:36:58.115Z,74.90
2023-02-11T17:39:26.113Z,74.80
2023-02-11T17:41:53.611Z,74.60
2023-02-11T17:44:20.910Z,74.70
2023-02-11T17:46:48.215Z,74.50
2023-02-11T17:49:16.539Z,74.00
2023-02-11T17:51:44.080Z,73.00
2023-02-11T17:54:17.445Z,72.70
2023-02-11T17:56:45.856Z,72.30
2023-02-11T17:59:13.733Z,72.90
2023-02-11T18:01:42.554Z,73.10
2023-02-11T18:04:14.991Z,73.20
2023-02-11T18:06:42.460Z,72.40
2023-02-11T18:09:09.775Z,72.90
2023-02-11T18:11:39.560Z,73.00
2023-02-11T18:14:08.603Z,73.40
2023-02-11T18:16:39.126Z,75.10
2023-02-11T18:19:07.841Z,73.30
2023-02-11T18:21:35.918Z,72.70
2023-02-11T18:24:06.752Z,72.50
2023-02-11T18:26:35.648Z,72.20
2023-02-11T18:29:04.357Z,73.90
2023-02-11T18:31:31.821Z,75.40
2023-02-11T18:33:59.117Z,74.10
2023-02-11T18:36:26.504Z,75.10
2023-02-11T18:38:54.452Z,73.70
2023-02-11T18:41:22.110Z,72.40
2023-02-11T18:43:49.762Z,71.50
2023-02-11T18:46:17.678Z,73.30
2023-02-11T18:48:45.497Z,74.70
2023-02-11T18:51:18.917Z,75.20
2023-02-11T18:53:46.848Z,76.00
2023-02-11T18:56:16.823Z,76.90
2023-02-11T18:58:44.459Z,78.00
2023-02-11T19:01:21.216Z,79.10
2023-02-11T19:03:48.816Z,79.00
2023-02-11T19:06:25.526Z,78.60
2023-02-11T19:09:00.814Z,78.40
2023-02-11T19:11:47.206Z,78.80
2023-02-11T19:14:25.544Z,80.20
2023-02-11T19:16:57.454Z,80.10
2023-02-11T19:19:28.125Z,80.50
2023-02-11T19:21:59.120Z,81.00
2023-02-11T19:24:27.924Z,81.80
2023-02-11T19:26:58.513Z,82.90
2023-02-11T19:29:26.675Z,83.70
2023-02-11T19:31:54.681Z,84.50
2023-02-11T19:34:22.669Z,84.90
2023-02-11T19:36:51.259Z,85.30
2023-02-11T19:39:19.764Z,85.60
2023-02-11T19:41:47.114Z,85.50
2023-02-11T19:44:14.982Z,86.00
2023-02-11T19:46:42.716Z,86.10
2023-02-11T19:49:11.582Z,86.30
2023-02-11T19:51:39.703Z,86.60
2023-02-11T19:54:08.135Z,86.70
2023-02-11T19:56:38.051Z,86.60
2023-02-11T19:59:09.064Z,86.60
2023-02-11T20:01:37.165Z,86.30
2023-02-11T20:04:04.618Z,86.30
2023-02-11T20:06:32.920Z,86.30
2023-02-11T20:09:06.602Z,86.20
2023-02-11T20:11:35.113Z,86.50
2023-02-11T20:14:03.786Z,86.80
2023-02-11T20:16:46.929Z,87.00
2023-02-11T20:19:20.334Z,86.90
2023-02-11T20:21:48.460Z,87.00
2023-02-11T20:24:18.176Z,87.00
2023-02-11T20:26:47.119Z,87.20
2023-02-11T20:29:16.109Z,87.90
2023-02-11T20:31:43.719Z,88.00
2023-02-11T20:34:12.465Z,88.40
2023-02-11T20:36:40.735Z,88.70
2023-02-11T20:39:09.360Z,88.90
2023-02-11T20:41:40.150Z,89.30
2023-02-11T20:44:10.479Z,89.40
2023-02-11T20:46:42.757Z,89.50
2023-02-11T20:49:11.560Z,90.10
2023-02-11T20:51:39.350Z,90.30
2023-02-11T20:54:07.056Z,90.30
2023-02-11T20:56:37.209Z,90.50
2023-02-11T20:59:05.780Z,90.60
2023-02-11T21:01:40.411Z,91.00
2023-02-11T21:04:12.294Z,91.00
2023-02-11T21:06:48.996Z,91.40
2023-02-11T21:09:22.694Z,91.50
2023-02-11T21:11:51.894Z,91.80
2023-02-11T21:14:23.581Z,91.80
2023-02-11T21:16:51.018Z,92.40
2023-02-11T21:19:20.240Z,92.00
2023-02-11T21:21:47.720Z,91.40
2023-02-11T21:24:15.607Z,90.70
2023-02-11T21:26:43.168Z,90.50
2023-02-11T21:29:11.762Z,90.60
2023-02-11T21:31:40.032Z,91.00
2023-02-11T21:34:08.075Z,91.60
2023-02-11T21:36:35.786Z,92.00
2023-02-11T21:39:04.158Z,92.00
2023-02-11T21:41:31.827Z,92.10
2023-02-11T21:44:02.076Z,92.10
2023-02-11T21:46:32.212Z,92.20
2023-02-11T21:49:02.544Z,92.50
2023-02-11T21:51:30.430Z,92.50
2023-02-11T21:54:00.025Z,92.90
2023-02-11T21:56:28.983Z,93.70
2023-02-11T21:58:58.051Z,93.00
2023-02-11T22:01:31.478Z,92.30
2023-02-11T22:04:00.584Z,91.30
2023-02-11T22:06:33.005Z,90.90
2023-02-11T22:09:04.601Z,90.50
2023-02-11T22:11:31.939Z,90.10
2023-02-11T22:14:00.001Z,90.10
2023-02-11T22:16:28.406Z,90.40
2023-02-11T22:18:58.799Z,90.90
2023-02-11T22:21:26.627Z,90.80
2023-02-11T22:23:56.517Z,91.30
2023-02-11T22:26:26.246Z,92.00
2023-02-11T22:28:54.988Z,92.10
2023-02-11T22:31:29.422Z,92.10
2023-02-11T22:33:57.883Z,92.30
2023-02-11T22:36:30.841Z,92.60
2023-02-11T22:39:04.447Z,93.00
2023-02-11T22:41:32.497Z,92.70
2023-02-11T22:43:59.761Z,92.90
2023-02-11T22:46:27.410Z,92.20
2023-02-11T22:48:55.170Z,92.00
2023-02-11T22:51:27.980Z,92.20
2023-02-11T22:54:00.879Z,92.60
2023-02-11T22:56:33.829Z,92.80
2023-02-11T22:59:04.615Z,93.50
2023-02-11T23:01:32.463Z,93.50
2023-02-11T23:04:02.021Z,93.80
2023-02-11T23:06:29.560Z,93.90
2023-02-11T23:08:57.133Z,94.00
2023-02-11T23:11:26.931Z,94.00
2023-02-11T23:13:55.107Z,94.00
2023-02-11T23:16:26.525Z,93.60
2023-02-11T23:18:54.982Z,91.30
2023-02-11T23:21:25.034Z,89.90
2023-02-11T23:24:04.399Z,89.10
2023-02-11T23:26:31.941Z,88.70
2023-02-11T23:29:00.363Z,89.50
2023-02-11T23:31:37.743Z,90.00
2023-02-11T23:34:06.698Z,90.80
2023-02-11T23:36:34.716Z,91.70
2023-02-11T23:39:02.289Z,91.30
2023-02-11T23:41:29.699Z,90.40
2023-02-11T23:43:58.469Z,90.00
2023-02-11T23:46:27.017Z,90.00
2023-02-11T23:48:54.600Z,90.20
2023-02-11T23:51:22.151Z,89.90
2023-02-11T23:53:50.621Z,90.00
2023-02-11T23:56:21.138Z,89.60
2023-02-11T23:58:53.737Z,89.80
